Time;durP1;ratioP1;P1;durP2;ratioP2;P2;SDS_P1;SDS_P2;PMS_P1;PMS_P2;Temp;Humidity;BMP_temperature;BMP_pressure;BME280_temperature;BME280_humidity;BME280_pressure;Samples;Min_cycle;Max_cycle;Signal;HPM_P1;HPM_P2
2023/04/12 00:01:05;;;;;;;3.95;1.92;;;7.70;97.80;;;;;;5052427;28;20074;-66
2023/04/12 00:03:32;;;;;;;7.82;2.30;;;7.70;97.90;;;;;;5052171;28;20431;-67
2023/04/12 00:06:02;;;;;;;3.30;1.95;;;7.70;97.90;;;;;;5052481;28;20029;-66
2023/04/12 00:08:31;;;;;;;4.45;2.05;;;7.70;98.00;;;;;;5051818;28;20036;-66
2023/04/12 00:11:01;;;;;;;3.38;1.83;;;7.70;98.00;;;;;;5052329;28;20408;-66
2023/04/12 00:13:27;;;;;;;3.95;1.98;;;7.70;98.00;;;;;;5053112;28;20369;-67
2023/04/12 00:15:52;;;;;;;2.92;1.92;;;7.70;98.00;;;;;;5056233;28;20025;-66
2023/04/12 00:18:18;;;;;;;3.15;1.95;;;7.60;98.00;;;;;;5056153;28;20044;-66
2023/04/12 00:20:44;;;;;;;3.88;1.98;;;7.60;98.40;;;;;;5055431;28;20831;-66
2023/04/12 00:23:11;;;;;;;4.05;2.00;;;7.60;98.10;;;;;;5056030;28;20040;-66
2023/04/12 00:25:38;;;;;;;2.92;1.90;;;7.60;98.20;;;;;;5054789;28;20035;-66
2023/04/12 00:28:04;;;;;;;4.40;2.10;;;7.60;98.30;;;;;;5054628;28;20112;-66
2023/04/12 00:30:30;;;;;;;4.72;1.90;;;7.60;98.40;;;;;;5055493;28;20033;-66
2023/04/12 00:32:56;;;;;;;4.15;2.05;;;7.60;98.50;;;;;;5055789;28;20025;-66
2023/04/12 00:35:21;;;;;;;3.72;1.80;;;7.60;98.40;;;;;;5055499;28;20052;-66
2023/04/12 00:37:49;;;;;;;3.13;1.98;;;7.60;98.60;;;;;;5055277;28;20075;-66
2023/04/12 00:40:15;;;;;;;5.35;2.03;;;7.60;98.60;;;;;;5055706;28;20393;-66
2023/04/12 00:42:40;;;;;;;4.53;2.38;;;7.60;98.60;;;;;;5054961;28;20025;-66
2023/04/12 00:45:07;;;;;;;5.03;2.10;;;7.60;98.50;;;;;;5055646;28;20049;-66
2023/04/12 00:47:36;;;;;;;2.63;1.90;;;7.60;98.30;;;;;;5054856;28;20033;-66
2023/04/12 00:50:04;;;;;;;7.75;2.20;;;7.60;98.30;;;;;;5055405;28;20033;-66
2023/04/12 00:52:33;;;;;;;3.60;2.13;;;7.60;98.20;;;;;;5053835;28;20043;-66
2023/04/12 00:55:03;;;;;;;6.63;2.50;;;7.50;98.20;;;;;;5055480;28;20428;-66
2023/04/12 00:57:37;;;;;;;4.47;2.47;;;7.50;98.00;;;;;;5054970;28;20525;-67
2023/04/12 01:00:11;;;;;;;3.75;2.17;;;7.50;98.30;;;;;;5054739;28;20258;-65
2023/04/12 01:02:49;;;;;;;2.95;1.98;;;7.50;98.40;;;;;;5054701;28;20116;-66
2023/04/12 01:05:21;;;;;;;3.13;1.95;;;7.50;98.60;;;;;;5054943;28;20473;-65
2023/04/12 01:08:05;;;;;;;5.60;2.00;;;7.50;98.80;;;;;;5054466;28;20064;-67
2023/04/12 01:10:40;;;;;;;3.55;2.17;;;7.50;99.20;;;;;;5054535;28;20124;-67
2023/04/12 01:13:20;;;;;;;4.22;1.85;;;7.50;99.40;;;;;;5054813;28;20033;-67
2023/04/12 01:16:13;;;;;;;5.10;2.08;;;7.50;99.70;;;;;;5054696;28;20048;-66
2023/04/12 01:18:44;;;;;;;3.90;2.80;;;7.50;99.90;;;;;;5038366;28;20482;-67
2023/04/12 01:21:15;;;;;;;2.95;2.05;;;7.50;99.90;;;;;;5055083;28;20466;-66
2023/04/12 01:23:52;;;;;;;5.13;2.30;;;7.40;99.90;;;;;;5054283;28;20366;-65
2023/04/12 01:26:43;;;;;;;2.95;1.90;;;7.40;99.90;;;;;;5053522;28;20418;-66
2023/04/12 01:29:15;;;;;;;3.58;2.20;;;7.40;99.90;;;;;;5054797;28;20029;-66
2023/04/12 01:31:52;;;;;;;5.22;2.00;;;7.40;99.90;;;;;;5054339;28;20381;-67
2023/04/12 01:34:20;;;;;;;6.82;2.60;;;7.40;99.90;;;;;;5054726;28;20025;-66
2023/04/12 01:36:47;;;;;;;4.15;2.03;;;7.40;99.90;;;;;;5054220;28;20144;-66
2023/04/12 01:39:13;;;;;;;3.25;2.47;;;7.40;99.90;;;;;;5054210;28;20033;-66
2023/04/12 01:41:44;;;;;;;4.85;2.20;;;7.30;99.90;;;;;;5054078;28;20049;-67
2023/04/12 01:44:14;;;;;;;3.30;2.20;;;7.30;99.90;;;;;;5054177;28;20063;-66
2023/04/12 01:46:40;;;;;;;4.00;2.35;;;7.30;99.90;;;;;;5053880;28;20028;-66
2023/04/12 01:49:06;;;;;;;7.10;2.30;;;7.30;99.90;;;;;;5054177;28;20091;-66
2023/04/12 01:51:50;;;;;;;4.15;2.63;;;7.30;99.90;;;;;;5054793;28;20474;-66
2023/04/12 01:54:27;;;;;;;4.18;1.77;;;7.30;99.90;;;;;;5054579;28;20029;-66
2023/04/12 01:56:57;;;;;;;5.22;2.30;;;7.30;99.90;;;;;;5054192;28;20431;-66
2023/04/12 01:59:27;;;;;;;4.10;1.80;;;7.20;99.90;;;;;;5053102;28;20033;-66
2023/04/12 02:01:53;;;;;;;3.03;2.20;;;7.20;99.90;;;;;;5053831;28;20041;-67
2023/04/12 02:04:20;;;;;;;3.95;2.20;;;7.20;99.90;;;;;;5054264;28;20072;-66
2023/04/12 02:06:46;;;;;;;5.63;2.55;;;7.20;99.90;;;;;;5053539;28;20469;-66
2023/04/12 02:09:12;;;;;;;5.38;2.40;;;7.10;99.90;;;;;;5054062;28;20397;-66
2023/04/12 02:11:37;;;;;;;4.78;2.20;;;7.10;99.90;;;;;;5053309;28;20025;-66
2023/04/12 02:14:03;;;;;;;4.63;2.70;;;7.10;99.90;;;;;;5053831;28;20025;-66
2023/04/12 02:16:31;;;;;;;3.58;2.60;;;7.10;99.90;;;;;;5053876;28;20025;-66
2023/04/12 02:18:57;;;;;;;6.18;2.22;;;7.10;99.90;;;;;;5053000;28;20107;-66
2023/04/12 02:21:23;;;;;;;4.28;2.22;;;7.10;99.90;;;;;;5053917;28;20037;-66
2023/04/12 02:23:49;;;;;;;5.05;2.60;;;7.00;99.90;;;;;;5053294;28;20025;-66
2023/04/12 02:26:15;;;;;;;7.15;2.60;;;7.00;99.90;;;;;;5053961;28;20025;-66
2023/04/12 02:28:41;;;;;;;3.22;2.47;;;7.00;99.90;;;;;;5053216;28;20500;-66
2023/04/12 02:31:07;;;;;;;4.88;2.78;;;7.00;99.90;;;;;;5054011;28;20044;-66
2023/04/12 02:33:33;;;;;;;6.70;2.50;;;7.00;99.90;;;;;;5053616;28;20029;-66
2023/04/12 02:36:01;;;;;;;4.40;2.22;;;7.00;99.90;;;;;;5052745;28;20426;-66
2023/04/12 02:38:27;;;;;;;4.28;2.50;;;7.00;99.90;;;;;;5053478;28;20437;-66
2023/04/12 02:40:53;;;;;;;5.80;2.33;;;6.90;99.90;;;;;;5053038;28;20491;-66
2023/04/12 02:43:19;;;;;;;3.97;2.15;;;6.90;99.90;;;;;;5052785;28;20049;-67
2023/04/12 02:45:46;;;;;;;4.20;2.72;;;6.90;99.90;;;;;;5052857;28;20367;-66
2023/04/12 02:48:11;;;;;;;4.97;2.50;;;6.90;99.90;;;;;;5052960;28;20033;-66
2023/04/12 02:50:37;;;;;;;4.45;2.22;;;6.80;99.90;;;;;;5053019;28;20462;-66
2023/04/12 02:53:03;;;;;;;5.35;2.35;;;6.80;99.90;;;;;;5053354;28;20044;-66
2023/04/12 02:55:29;;;;;;;3.97;2.25;;;6.80;99.90;;;;;;5053242;28;20035;-66
2023/04/12 02:57:56;;;;;;;5.80;2.00;;;6.80;99.90;;;;;;5052711;28;20040;-67
2023/04/12 03:00:22;;;;;;;7.65;2.22;;;6.80;99.90;;;;;;5052784;28;20032;-67
2023/04/12 03:02:51;;;;;;;4.20;2.20;;;6.80;99.90;;;;;;5052717;28;20025;-66
2023/04/12 03:05:17;;;;;;;4.47;2.05;;;6.70;99.90;;;;;;5052903;28;20519;-66
2023/04/12 03:07:43;;;;;;;2.72;2.00;;;6.70;99.90;;;;;;5052725;28;20112;-67
2023/04/12 03:10:12;;;;;;;5.45;2.22;;;6.70;99.90;;;;;;5053187;28;20025;-66
2023/04/12 03:12:38;;;;;;;3.22;2.30;;;6.70;99.90;;;;;;5053031;28;20029;-66
2023/04/12 03:15:04;;;;;;;6.55;2.10;;;6.70;99.90;;;;;;5052158;28;20472;-66
2023/04/12 03:17:29;;;;;;;3.47;2.05;;;6.60;99.90;;;;;;5052619;28;20036;-66
2023/04/12 03:19:57;;;;;;;2.78;2.03;;;6.60;99.90;;;;;;5052399;28;20061;-67
2023/04/12 03:22:24;;;;;;;6.15;2.35;;;6.60;99.90;;;;;;5052899;28;20090;-66
2023/04/12 03:24:50;;;;;;;6.13;2.17;;;6.60;99.90;;;;;;5052448;28;20366;-67
2023/04/12 03:27:16;;;;;;;3.63;2.33;;;6.50;99.90;;;;;;5053815;28;20037;-66
2023/04/12 03:29:41;;;;;;;2.75;1.88;;;6.50;99.90;;;;;;5058900;28;20441;-71
2023/04/12 03:32:07;;;;;;;3.90;1.83;;;6.50;99.90;;;;;;5062827;28;20029;-66
2023/04/12 03:34:33;;;;;;;4.85;2.17;;;6.50;99.90;;;;;;5052401;28;20028;-66
2023/04/12 03:37:02;;;;;;;3.00;1.98;;;6.50;99.90;;;;;;5055894;28;20028;-66
2023/04/12 03:39:28;;;;;;;3.70;2.17;;;6.40;99.90;;;;;;5064847;28;20211;-67
2023/04/12 03:41:54;;;;;;;3.33;2.20;;;6.40;99.90;;;;;;5052256;28;20493;-66
2023/04/12 03:44:20;;;;;;;4.40;2.00;;;6.40;99.90;;;;;;5052497;28;20053;-67
2023/04/12 03:46:47;;;;;;;4.00;1.80;;;6.40;99.90;;;;;;5052234;28;20144;-67
2023/04/12 03:49:13;;;;;;;5.53;2.28;;;6.40;99.90;;;;;;5055060;28;20045;-67
2023/04/12 03:51:41;;;;;;;5.93;2.00;;;6.40;99.90;;;;;;5056703;28;20025;-67
2023/04/12 03:54:14;;;;;;;3.33;2.28;;;6.40;99.90;;;;;;5057128;28;20029;-67
2023/04/12 03:56:40;;;;;;;3.53;2.00;;;6.40;99.90;;;;;;5058675;28;20492;-67
2023/04/12 03:59:06;;;;;;;6.50;1.95;;;6.40;99.90;;;;;;5055681;28;20029;-66
2023/04/12 04:01:33;;;;;;;3.83;2.20;;;6.40;99.90;;;;;;5056921;28;20396;-66
2023/04/12 04:03:59;;;;;;;3.30;1.83;;;6.40;99.90;;;;;;5055994;28;20401;-66
2023/04/12 04:06:25;;;;;;;3.22;2.00;;;6.40;99.90;;;;;;5056259;28;20029;-66
2023/04/12 04:08:51;;;;;;;4.20;2.05;;;6.30;99.90;;;;;;5055540;28;20470;-67
2023/04/12 04:11:16;;;;;;;6.00;2.03;;;6.40;99.90;;;;;;5056518;28;20046;-66
2023/04/12 04:13:42;;;;;;;4.00;2.22;;;6.30;99.90;;;;;;5056107;28;20414;-66
2023/04/12 04:16:09;;;;;;;9.80;2.15;;;6.40;99.90;;;;;;5055747;28;20029;-66
2023/04/12 04:18:35;;;;;;;3.70;1.90;;;6.30;99.90;;;;;;5056075;28;20032;-65
2023/04/12 04:21:01;;;;;;;2.97;2.08;;;6.40;99.90;;;;;;5055761;28;20024;-65
2023/04/12 04:23:27;;;;;;;3.42;1.92;;;6.40;99.90;;;;;;5056280;28;20060;-65
2023/04/12 04:25:54;;;;;;;7.38;1.85;;;6.40;99.90;;;;;;5055536;28;20033;-67
2023/04/12 04:28:19;;;;;;;4.20;2.05;;;6.40;99.90;;;;;;5055517;28;20032;-65
2023/04/12 04:30:45;;;;;;;3.60;1.90;;;6.40;99.90;;;;;;5056085;28;20040;-66
2023/04/12 04:33:11;;;;;;;5.32;2.25;;;6.40;99.90;;;;;;5055075;28;20040;-67
2023/04/12 04:35:44;;;;;;;3.90;2.10;;;6.40;99.90;;;;;;5055254;28;20502;-66
2023/04/12 04:38:09;;;;;;;7.40;2.10;;;6.40;99.90;;;;;;5054629;28;20044;-67
2023/04/12 04:40:38;;;;;;;3.70;2.20;;;6.40;99.90;;;;;;5055461;28;20029;-66
2023/04/12 04:43:04;;;;;;;3.85;2.50;;;6.40;99.90;;;;;;5053232;28;20036;-65
2023/04/12 04:45:29;;;;;;;4.82;2.40;;;6.30;99.90;;;;;;5055610;28;20057;-66
2023/04/12 04:47:56;;;;;;;7.20;2.45;;;6.40;99.90;;;;;;5054879;28;20033;-67
2023/04/12 04:50:23;;;;;;;7.40;2.83;;;6.40;99.90;;;;;;5055167;28;20477;-67
2023/04/12 04:52:52;;;;;;;7.85;2.42;;;6.40;99.90;;;;;;5055413;28;20138;-68
2023/04/12 04:55:18;;;;;;;5.93;2.17;;;6.40;99.90;;;;;;5055270;28;20021;-67
2023/04/12 04:57:43;;;;;;;5.80;2.17;;;6.40;99.90;;;;;;5055394;28;20025;-67
2023/04/12 05:00:10;;;;;;;4.32;2.40;;;6.40;99.90;;;;;;5055513;28;20036;-68
2023/04/12 05:02:42;;;;;;;7.13;2.30;;;6.40;99.90;;;;;;5056222;28;20047;-68
2023/04/12 05:05:22;;;;;;;3.95;2.50;;;6.40;99.90;;;;;;5035815;28;20025;-67
2023/04/12 05:07:48;;;;;;;4.88;2.40;;;6.40;99.90;;;;;;5037561;28;20034;-65
2023/04/12 05:10:13;;;;;;;3.63;2.13;;;6.50;99.90;;;;;;5036558;28;20032;-67
2023/04/12 05:12:39;;;;;;;6.57;2.17;;;6.50;99.90;;;;;;5036423;28;20025;-66
2023/04/12 05:15:05;;;;;;;4.97;1.73;;;6.50;99.90;;;;;;5036013;28;20040;-67
2023/04/12 05:17:33;;;;;;;4.40;2.20;;;6.50;99.90;;;;;;5036645;28;20033;-66
2023/04/12 05:19:59;;;;;;;3.90;2.22;;;6.50;99.90;;;;;;5039050;28;20024;-66
2023/04/12 05:22:25;;;;;;;5.22;2.10;;;6.60;99.90;;;;;;5054819;28;20033;-65
2023/04/12 05:24:51;;;;;;;5.20;2.15;;;6.60;99.90;;;;;;5053343;28;20025;-65
2023/04/12 05:27:17;;;;;;;4.38;2.10;;;6.60;99.90;;;;;;5054045;28;20032;-66
2023/04/12 05:29:43;;;;;;;4.68;2.50;;;6.60;99.90;;;;;;5054734;28;20032;-66
2023/04/12 05:32:09;;;;;;;5.13;1.95;;;6.70;99.90;;;;;;5054325;28;20021;-66
2023/04/12 05:34:36;;;;;;;3.90;2.08;;;6.70;99.90;;;;;;5054398;28;20104;-66
2023/04/12 05:37:02;;;;;;;3.25;2.13;;;6.80;99.90;;;;;;5054134;28;20025;-66
2023/04/12 05:39:28;;;;;;;2.75;1.73;;;6.80;99.90;;;;;;5054546;28;20025;-65
2023/04/12 05:41:54;;;;;;;4.43;1.95;;;6.90;99.90;;;;;;5053993;28;20025;-67
2023/04/12 05:44:20;;;;;;;6.47;2.20;;;6.90;99.90;;;;;;5053889;28;20047;-67
2023/04/12 05:46:46;;;;;;;3.50;1.92;;;6.90;99.50;;;;;;5054443;28;20416;-67
2023/04/12 05:49:12;;;;;;;6.40;1.80;;;7.00;99.40;;;;;;5052511;28;20029;-66
2023/04/12 05:51:37;;;;;;;3.42;2.08;;;7.00;99.30;;;;;;5053957;28;20057;-66
2023/04/12 05:54:05;;;;;;;7.45;2.03;;;7.00;99.30;;;;;;5053075;28;20112;-66
2023/04/12 05:56:32;;;;;;;4.95;2.20;;;7.10;99.20;;;;;;5054172;28;20029;-67
2023/04/12 05:58:57;;;;;;;5.30;2.15;;;7.10;99.10;;;;;;5053692;28;20036;-66
2023/04/12 06:01:29;;;;;;;4.90;1.80;;;7.10;98.90;;;;;;5053846;28;20036;-66
2023/04/12 06:03:55;;;;;;;5.90;2.50;;;7.30;99.50;;;;;;5054057;28;20707;-66
2023/04/12 06:06:21;;;;;;;10.35;2.20;;;7.50;99.50;;;;;;5053515;28;20029;-66
2023/04/12 06:08:47;;;;;;;5.28;2.30;;;7.70;99.50;;;;;;5052160;28;20043;-68
2023/04/12 06:11:12;;;;;;;5.30;2.05;;;7.90;99.20;;;;;;5050999;28;20523;-67
2023/04/12 06:13:38;;;;;;;8.40;2.35;;;8.00;97.80;;;;;;5052279;28;20014;-67
2023/04/12 06:16:05;;;;;;;6.35;2.10;;;8.20;97.50;;;;;;5051914;28;20028;-68
2023/04/12 06:18:31;;;;;;;4.47;2.13;;;8.40;96.90;;;;;;5052140;28;20108;-66
2023/04/12 06:20:56;;;;;;;4.80;2.10;;;8.60;95.70;;;;;;5054350;28;20029;-68
2023/04/12 06:23:22;;;;;;;4.90;2.05;;;8.80;94.80;;;;;;5054028;28;20049;-66
2023/04/12 06:25:49;;;;;;;3.00;1.80;;;9.10;93.40;;;;;;5069027;28;20373;-66
2023/04/12 06:28:15;;;;;;;4.72;2.13;;;9.40;91.70;;;;;;5063805;28;20056;-66
2023/04/12 06:30:41;;;;;;;10.40;1.80;;;9.70;90.90;;;;;;5063247;28;20036;-64
2023/04/12 06:33:07;;;;;;;3.65;1.83;;;9.90;90.30;;;;;;5056763;28;20155;-65
2023/04/12 06:35:33;;;;;;;5.88;2.10;;;10.20;88.30;;;;;;5068305;28;20112;-64
2023/04/12 06:37:58;;;;;;;9.70;2.00;;;10.50;82.80;;;;;;5052876;28;20433;-64
2023/04/12 06:40:24;;;;;;;9.50;2.28;;;10.70;81.20;;;;;;5053391;28;20603;-66
2023/04/12 06:42:49;;;;;;;6.38;2.03;;;11.00;80.20;;;;;;5054202;28;20123;-64
2023/04/12 06:45:15;;;;;;;3.53;2.00;;;11.40;77.80;;;;;;5049637;28;20512;-65
2023/04/12 06:47:41;;;;;;;5.57;2.30;;;11.70;74.30;;;;;;5053058;28;20036;-64
2023/04/12 06:50:07;;;;;;;5.03;2.05;;;12.10;73.60;;;;;;5052606;28;20029;-65
2023/04/12 06:52:33;;;;;;;3.47;1.98;;;12.40;71.20;;;;;;5050140;28;20106;-65
2023/04/12 06:54:59;;;;;;;4.05;1.83;;;12.90;70.00;;;;;;5051235;28;20021;-63
2023/04/12 06:57:24;;;;;;;5.30;2.20;;;13.30;68.00;;;;;;5051455;28;20061;-68
2023/04/12 06:59:51;;;;;;;4.88;2.05;;;13.70;63.90;;;;;;5051195;28;20373;-65
2023/04/12 07:02:17;;;;;;;5.55;2.15;;;14.20;63.10;;;;;;5050584;28;20029;-65
2023/04/12 07:04:43;;;;;;;3.20;1.80;;;14.80;62.30;;;;;;5051140;28;20106;-65
2023/04/12 07:07:09;;;;;;;3.88;1.95;;;15.70;60.30;;;;;;5050328;28;20033;-68
2023/04/12 07:09:34;;;;;;;6.85;1.90;;;16.70;56.70;;;;;;5051495;28;20555;-65
2023/04/12 07:12:01;;;;;;;4.90;1.90;;;17.80;53.00;;;;;;5051525;28;20021;-65
2023/04/12 07:14:27;;;;;;;3.17;1.88;;;18.70;50.20;;;;;;5051642;28;20021;-63
2023/04/12 07:16:53;;;;;;;7.15;2.17;;;19.60;46.60;;;;;;5051663;28;20029;-64
2023/04/12 07:19:18;;;;;;;3.78;2.08;;;20.40;44.50;;;;;;5049758;28;20031;-65
2023/04/12 07:21:44;;;;;;;4.22;1.90;;;21.00;42.70;;;;;;5051924;28;20021;-63
2023/04/12 07:24:10;;;;;;;4.72;1.60;;;21.60;41.70;;;;;;5050603;28;20064;-65
2023/04/12 07:26:35;;;;;;;3.95;1.98;;;22.30;40.10;;;;;;5052085;28;20032;-65
2023/04/12 07:29:01;;;;;;;5.43;1.80;;;22.80;38.00;;;;;;5051811;28;20059;-65
2023/04/12 07:31:29;;;;;;;7.35;1.67;;;23.10;36.90;;;;;;5052059;28;20037;-65
2023/04/12 07:33:55;;;;;;;4.68;1.85;;;23.40;36.00;;;;;;5052471;28;20435;-65
2023/04/12 07:36:21;;;;;;;4.18;2.25;;;23.60;35.20;;;;;;5051782;28;20021;-65
2023/04/12 07:38:47;;;;;;;4.70;1.80;;;23.60;35.10;;;;;;5050296;28;20031;-65
2023/04/12 07:41:13;;;;;;;4.28;1.98;;;23.80;35.40;;;;;;5051933;28;20033;-65
2023/04/12 07:43:38;;;;;;;6.20;2.22;;;24.20;35.60;;;;;;5052151;28;20556;-65
2023/04/12 07:46:07;;;;;;;3.60;1.90;;;24.70;33.60;;;;;;5051836;28;20433;-64
2023/04/12 07:48:33;;;;;;;4.80;2.25;;;25.10;33.20;;;;;;5052137;28;20029;-64
2023/04/12 07:50:59;;;;;;;5.68;2.60;;;25.30;31.70;;;;;;5052270;28;20029;-64
2023/04/12 07:53:26;;;;;;;6.47;2.35;;;25.40;31.70;;;;;;5051826;28;20033;-64
2023/04/12 07:55:53;;;;;;;2.58;1.80;;;25.40;31.80;;;;;;5051987;28;20029;-65
2023/04/12 07:58:20;;;;;;;6.25;2.20;;;25.20;31.20;;;;;;5051948;28;20374;-64
2023/04/12 08:00:46;;;;;;;5.97;2.45;;;25.20;31.10;;;;;;5052098;28;20029;-64
2023/04/12 08:03:16;;;;;;;4.28;2.22;;;25.40;31.00;;;;;;5052078;28;20099;-64
2023/04/12 08:05:42;;;;;;;9.95;2.63;;;25.60;32.30;;;;;;5052015;28;20113;-64
2023/04/12 08:08:09;;;;;;;4.18;2.15;;;26.10;31.80;;;;;;5051826;28;20032;-64
2023/04/12 08:10:38;;;;;;;6.13;2.65;;;26.60;30.80;;;;;;5052231;28;20029;-64
2023/04/12 08:13:05;;;;;;;8.25;2.50;;;26.80;31.50;;;;;;5051559;28;20029;-64
2023/04/12 08:15:31;;;;;;;3.47;2.13;;;27.30;29.70;;;;;;5052248;28;20518;-64
2023/04/12 08:17:56;;;;;;;6.10;2.28;;;27.30;30.30;;;;;;5052488;28;20108;-65
2023/04/12 08:20:22;;;;;;;4.70;2.50;;;27.50;29.70;;;;;;5051857;28;20386;-64
2023/04/12 08:22:48;;;;;;;7.03;2.15;;;27.50;29.30;;;;;;5052109;28;20086;-64
2023/04/12 08:25:15;;;;;;;6.68;2.95;;;27.90;28.90;;;;;;5051657;28;20029;-65
2023/04/12 08:27:42;;;;;;;4.55;2.33;;;27.90;29.90;;;;;;5050746;28;20354;-64
2023/04/12 08:30:08;;;;;;;7.35;2.35;;;28.20;29.20;;;;;;5051648;28;20032;-64
2023/04/12 08:32:34;;;;;;;6.40;2.40;;;28.20;28.40;;;;;;5051990;28;20033;-64
2023/04/12 08:35:01;;;;;;;7.85;2.55;;;28.40;28.90;;;;;;5054051;28;20100;-65
2023/04/12 08:37:26;;;;;;;7.07;2.70;;;27.60;28.60;;;;;;5055249;28;20458;-65
2023/04/12 08:39:52;;;;;;;8.52;2.70;;;26.90;30.00;;;;;;5053986;28;20100;-63
2023/04/12 08:42:18;;;;;;;5.78;2.22;;;27.10;29.80;;;;;;5055343;28;20048;-65
2023/04/12 08:44:44;;;;;;;17.65;2.80;;;26.80;29.70;;;;;;5055576;28;20120;-64
2023/04/12 08:47:10;;;;;;;8.90;2.63;;;25.90;29.10;;;;;;5054947;28;20440;-64
2023/04/12 08:49:36;;;;;;;7.28;2.38;;;25.20;29.70;;;;;;5055469;28;20041;-64
2023/04/12 08:52:08;;;;;;;6.60;2.90;;;24.60;30.40;;;;;;5055143;28;20116;-64
2023/04/12 08:54:34;;;;;;;5.10;2.30;;;23.80;32.10;;;;;;5055377;28;20036;-64
2023/04/12 08:57:01;;;;;;;5.43;2.13;;;23.40;33.10;;;;;;5054947;28;20024;-65
2023/04/12 08:59:28;;;;;;;4.50;2.15;;;23.10;33.20;;;;;;5054788;28;20024;-65
2023/04/12 09:01:55;;;;;;;4.47;2.17;;;22.50;32.50;;;;;;5055199;28;20056;-65
2023/04/12 09:04:21;;;;;;;5.82;1.92;;;22.10;32.50;;;;;;5054675;28;20025;-64
2023/04/12 09:06:47;;;;;;;4.88;2.20;;;21.80;34.20;;;;;;5054847;28;20385;-64
2023/04/12 09:09:13;;;;;;;7.35;2.30;;;21.70;35.00;;;;;;5054915;28;20029;-64
2023/04/12 09:11:39;;;;;;;5.40;2.25;;;21.50;34.60;;;;;;5055033;28;20036;-64
2023/04/12 09:14:21;;;;;;;4.40;2.33;;;21.40;33.50;;;;;;5053494;28;20095;-64
2023/04/12 09:16:47;;;;;;;6.82;2.35;;;21.20;34.80;;;;;;5055008;28;20028;-65
2023/04/12 09:19:12;;;;;;;6.97;2.42;;;21.10;33.60;;;;;;5054081;28;20033;-65
2023/04/12 09:21:52;;;;;;;6.82;2.58;;;21.00;33.80;;;;;;5054717;28;20028;-64
2023/04/12 09:24:18;;;;;;;9.10;2.75;;;20.40;34.10;;;;;;5054442;28;20068;-66
2023/04/12 09:26:44;;;;;;;5.65;2.20;;;20.30;34.10;;;;;;5054727;28;20025;-63
2023/04/12 09:29:26;;;;;;;6.25;1.90;;;20.20;34.30;;;;;;5054254;28;20106;-66
2023/04/12 09:31:59;;;;;;;4.72;1.80;;;20.20;33.30;;;;;;5054816;28;20063;-65
2023/04/12 09:34:24;;;;;;;7.40;2.20;;;20.20;33.00;;;;;;5053826;28;20362;-64
2023/04/12 09:36:50;;;;;;;7.35;2.30;;;20.10;33.10;;;;;;5054622;28;20036;-65
2023/04/12 09:39:15;;;;;;;9.35;2.40;;;20.10;33.90;;;;;;5054233;28;20036;-64
2023/04/12 09:41:41;;;;;;;5.35;2.33;;;20.00;33.30;;;;;;5054764;28;20024;-64
2023/04/12 09:44:07;;;;;;;7.22;2.55;;;19.70;34.30;;;;;;5054212;28;20047;-64
2023/04/12 09:46:32;;;;;;;4.80;2.00;;;19.70;34.20;;;;;;5052836;28;20420;-64
2023/04/12 09:48:59;;;;;;;7.95;2.60;;;19.40;35.10;;;;;;5054479;28;20025;-64
2023/04/12 09:51:27;;;;;;;4.72;1.88;;;19.40;35.80;;;;;;5053690;28;20108;-64
2023/04/12 09:53:55;;;;;;;7.43;2.10;;;19.40;33.70;;;;;;5054314;28;20029;-64
2023/04/12 09:56:22;;;;;;;6.50;2.15;;;19.30;33.70;;;;;;5053809;28;20036;-65
2023/04/12 09:58:53;;;;;;;4.47;1.95;;;19.10;33.30;;;;;;5054146;28;20033;-64
2023/04/12 10:01:21;;;;;;;5.53;2.10;;;19.10;32.80;;;;;;5053691;28;20078;-64
2023/04/12 10:03:47;;;;;;;3.65;1.77;;;19.20;34.20;;;;;;5053955;28;20064;-63
2023/04/12 10:06:14;;;;;;;5.53;2.30;;;19.30;34.90;;;;;;5053555;28;20028;-65
2023/04/12 10:08:41;;;;;;;5.47;1.73;;;19.30;34.80;;;;;;5053867;28;20040;-65
2023/04/12 10:11:08;;;;;;;7.53;2.33;;;19.10;34.90;;;;;;5053781;28;20041;-64
2023/04/12 10:13:35;;;;;;;4.55;2.10;;;19.00;35.10;;;;;;5053259;28;20029;-65
2023/04/12 10:16:04;;;;;;;3.08;1.73;;;18.90;35.60;;;;;;5053717;28;20390;-64
2023/04/12 10:18:34;;;;;;;4.47;1.60;;;18.80;36.00;;;;;;5053310;28;20083;-64
2023/04/12 10:21:00;;;;;;;3.92;1.42;;;18.60;35.60;;;;;;5053715;28;20040;-64
2023/04/12 10:23:26;;;;;;;6.43;2.30;;;18.50;35.40;;;;;;5052957;28;20029;-64
2023/04/12 10:25:55;;;;;;;4.32;1.90;;;18.40;35.30;;;;;;5053563;28;20115;-64
2023/04/12 10:28:21;;;;;;;4.28;1.60;;;18.20;34.80;;;;;;5052876;28;20037;-64
2023/04/12 10:30:49;;;;;;;5.53;3.08;;;18.00;34.90;;;;;;5053515;28;20086;-64
2023/04/12 10:33:17;;;;;;;5.05;2.72;;;17.90;35.60;;;;;;5053050;28;20032;-64
2023/04/12 10:35:56;;;;;;;4.07;2.25;;;17.80;36.10;;;;;;5053419;28;20050;-64
2023/04/12 10:38:25;;;;;;;4.80;1.83;;;17.60;35.40;;;;;;5052826;28;20033;-64
2023/04/12 10:41:14;;;;;;;5.40;1.92;;;17.60;35.30;;;;;;5052084;28;20024;-64
2023/04/12 10:43:44;;;;;;;5.22;2.00;;;17.50;36.30;;;;;;5052687;28;20045;-64
2023/04/12 10:46:36;;;;;;;6.50;1.90;;;17.40;35.60;;;;;;5052755;28;20025;-64
2023/04/12 10:49:09;;;;;;;4.95;1.75;;;17.30;34.90;;;;;;5053083;28;20037;-64
2023/04/12 10:51:34;;;;;;;2.85;1.60;;;17.30;35.60;;;;;;5052625;28;20358;-64
2023/04/12 10:54:15;;;;;;;5.72;1.85;;;17.20;35.70;;;;;;5051961;28;20079;-64
2023/04/12 10:56:43;;;;;;;7.28;1.80;;;17.20;36.00;;;;;;5052735;28;20090;-65
2023/04/12 10:59:13;;;;;;;5.65;1.50;;;17.30;36.10;;;;;;5052764;28;20087;-64
2023/04/12 11:01:40;;;;;;;3.20;1.30;;;17.20;34.90;;;;;;5053093;28;20074;-64
2023/04/12 11:04:18;;;;;;;6.70;1.55;;;17.20;35.80;;;;;;5052806;28;20417;-65
2023/04/12 11:06:52;;;;;;;4.40;1.50;;;17.30;34.70;;;;;;5052811;28;20382;-64
2023/04/12 11:09:41;;;;;;;6.10;2.00;;;17.30;34.90;;;;;;5052091;28;20033;-65
2023/04/12 11:12:07;;;;;;;3.67;1.48;;;17.30;34.40;;;;;;5052175;28;20493;-64
2023/04/12 11:14:41;;;;;;;3.42;1.60;;;17.20;33.80;;;;;;5052371;28;20029;-65
2023/04/12 11:17:07;;;;;;;4.32;1.50;;;17.20;35.40;;;;;;5052640;28;20108;-64
2023/04/12 11:19:57;;;;;;;4.05;1.60;;;17.10;34.90;;;;;;5051532;28;20437;-65
2023/04/12 11:22:26;;;;;;;4.13;1.65;;;17.10;35.50;;;;;;5047075;28;20116;-65
2023/04/12 11:24:54;;;;;;;3.10;1.40;;;17.00;35.20;;;;;;5052362;28;20107;-64
2023/04/12 11:27:21;;;;;;;2.95;1.38;;;17.00;36.10;;;;;;5052149;28;20021;-64
2023/04/12 11:29:49;;;;;;;3.47;1.38;;;16.90;35.80;;;;;;5052535;28;20032;-64
2023/04/12 11:32:15;;;;;;;5.25;1.60;;;16.90;35.60;;;;;;5052623;28;20120;-64
2023/04/12 11:34:43;;;;;;;3.92;1.73;;;16.90;35.50;;;;;;5052563;28;20033;-64
2023/04/12 11:37:09;;;;;;;4.63;1.50;;;16.90;35.40;;;;;;5052396;28;20029;-64
2023/04/12 11:39:38;;;;;;;6.55;1.40;;;16.90;35.60;;;;;;5052159;28;20232;-64
2023/04/12 11:42:07;;;;;;;2.85;1.30;;;17.00;36.00;;;;;;5052592;28;20024;-64
2023/04/12 11:44:34;;;;;;;3.83;1.48;;;17.00;35.30;;;;;;5051937;28;20049;-64
2023/04/12 11:47:02;;;;;;;4.70;1.63;;;17.10;36.20;;;;;;5052453;28;20124;-65
2023/04/12 11:49:28;;;;;;;6.97;1.80;;;17.10;35.30;;;;;;5051689;28;20033;-64
2023/04/12 11:52:02;;;;;;;6.25;2.00;;;17.20;36.50;;;;;;5052761;28;20032;-64
2023/04/12 11:54:29;;;;;;;3.58;1.55;;;17.30;37.00;;;;;;5051942;28;20033;-64
2023/04/12 11:56:56;;;;;;;5.10;1.70;;;17.40;36.00;;;;;;5052242;28;20032;-64
2023/04/12 11:59:22;;;;;;;3.95;2.10;;;17.20;35.30;;;;;;5051957;28;20459;-65
2023/04/12 12:01:50;;;;;;;5.15;2.05;;;17.20;35.80;;;;;;5052224;28;20108;-64
2023/04/12 12:04:16;;;;;;;8.50;2.00;;;17.10;35.20;;;;;;5052394;28;20033;-64
2023/04/12 12:06:42;;;;;;;4.38;1.70;;;17.10;35.60;;;;;;5051844;28;20025;-64
2023/04/12 12:09:08;;;;;;;4.43;1.52;;;17.10;35.50;;;;;;5052683;28;20029;-64
2023/04/12 12:11:34;;;;;;;6.47;1.55;;;17.20;36.60;;;;;;5055735;28;20087;-64
2023/04/12 12:14:00;;;;;;;3.20;1.90;;;17.10;36.70;;;;;;5055971;28;20025;-63
2023/04/12 12:16:27;;;;;;;5.50;1.63;;;17.10;37.10;;;;;;5055892;28;20401;-64
2023/04/12 12:18:53;;;;;;;3.88;1.70;;;17.00;37.30;;;;;;5056184;28;20037;-63
2023/04/12 12:21:20;;;;;;;4.05;1.70;;;17.00;37.40;;;;;;5056023;28;20108;-63
2023/04/12 12:23:47;;;;;;;3.90;1.73;;;16.90;37.50;;;;;;5055865;28;20440;-64
2023/04/12 12:26:21;;;;;;;4.40;1.63;;;16.80;37.90;;;;;;5055948;28;20033;-64
2023/04/12 12:28:51;;;;;;;4.43;1.52;;;16.60;37.70;;;;;;5055621;28;20037;-64
2023/04/12 12:31:20;;;;;;;5.03;1.70;;;16.60;38.60;;;;;;5055816;28;20036;-64
2023/04/12 12:33:46;;;;;;;5.43;1.95;;;16.60;39.00;;;;;;5055561;28;20036;-63
2023/04/12 12:36:15;;;;;;;3.03;1.73;;;16.50;38.90;;;;;;5055295;28;20029;-63
2023/04/12 12:38:41;;;;;;;5.22;1.85;;;16.40;38.60;;;;;;5055133;28;20036;-64
2023/04/12 12:41:18;;;;;;;3.80;1.70;;;16.30;38.30;;;;;;5055538;28;20028;-64
2023/04/12 12:43:51;;;;;;;3.75;1.63;;;16.30;38.40;;;;;;5054846;28;20544;-64
2023/04/12 12:46:18;;;;;;;4.35;1.83;;;16.30;38.80;;;;;;5055032;28;20028;-64
2023/04/12 12:48:46;;;;;;;6.63;1.95;;;16.20;39.00;;;;;;5054903;28;20086;-64
2023/04/12 12:51:13;;;;;;;3.95;1.80;;;16.20;39.30;;;;;;5054161;28;20476;-64
2023/04/12 12:53:39;;;;;;;6.10;1.70;;;16.10;39.10;;;;;;5054904;28;20021;-64
2023/04/12 12:56:07;;;;;;;5.25;2.00;;;16.10;39.30;;;;;;5055283;28;20075;-65